메인 페이지
METAR-TAF:

METAR-TAF

공항 :

몽고메리, 앨라배마, 미국

위도: 32-18-01N, 경도: 086-24-22W, 고도: 67m

현재 날씨관측

예보는 49분 전, 22:53시(UTC)에 발표되었습니다.
남남동3kt
온도 29°C
습도 66%
기압 1011 hPa
시정: 16.1km
맑음

METAR: KMGM 262253Z 15003KT 10SM CLR 29/22 A2984 RMK AO2 SLP101 T02890217

시각: 18:42 (23:42 UTC)

예보

예보는 53분 전, 22:49시(UTC)에 발표되었습니다.
예보 대상 시간: 26일 23시부터 27일 18시까지 (UTC)
남동6kt
시정: 10km
고도 3500ft 상공 구름 많음, 적란운.
약한비, 시계 내 뇌우
27일 0000시부터 (UTC)
동남동6kt
시정: 10km
고도 8000ft 상공 구름 보통
고도 25000ft 상공 흐림
27일 0400시부터 (UTC)
3kt
시정: 6.4km
고도 3500ft 상공 구름 많음
박무
27일 0800시부터 (UTC)
3kt
시정: 3.2km
고도 200ft 상공 구름 많음
박무
27일 1000시부터 (UTC)
동북동4kt
시정: 6.4km
고도 2500ft 상공 구름 많음
박무
27일 1200시부터 (UTC)
동북동8kt
시정: 10km
고도 3500ft 상공 구름 많음
시계 내 소나기

TAF: KMGM 262249Z 2623/2718 13006KT P6SM -RA VCTS BKN035CB FM270000 12006KT P6SM SCT080 OVC250 FM270400 10003KT 4SM BR BKN035 FM270800 08003KT 2SM BR BKN002 FM271000 06004KT 4SM BR BKN025 FM271200 07008KT P6SM VCSH BKN035

4,000개 이상의 공항 관측 자료 및 예보 (METAR 및 TAF 보고).

지도상에서 검색 가능한 기상관측소가 노란 점과 빨간 점으로 표시되어 있습니다.

기상관측소 명을 보려면 표시 위로 마우스를 이동하세요.

날씨 관측과 예보를 보려면 클릭하세요.

지도 변경 : 확대하려면 엑스 표시가 있는 녹색 버튼, 축소하려면 빼기 표시가 있는 녹색 버튼, 다음 페이지의 지도를 보려면 녹색 화살표를 클릭하세요.


METAR-TAF: